Time;durP1;ratioP1;P1;durP2;ratioP2;P2;SDS_P1;SDS_P2;PMS_P1;PMS_P2;Temp;Humidity;BMP_temperature;BMP_pressure;BME280_temperature;BME280_humidity;BME280_pressure;Samples;Min_cycle;Max_cycle;Signal;HPM_P1;HPM_P2
2023/07/31 00:01:14;;;;;;;0.00;0.00;;;;;;;15.58;nan;99711.53;6248330;22;20010;-74
2023/07/31 00:03:40;;;;;;;0.00;0.00;;;;;;;15.60;nan;99703.78;6222859;22;20008;-74
2023/07/31 00:06:05;;;;;;;0.00;0.00;;;;;;;15.58;nan;99703.28;6222613;22;20030;-74
2023/07/31 00:08:31;;;;;;;0.00;0.00;;;;;;;15.60;nan;99698.28;6249537;22;20008;-74
2023/07/31 00:10:56;;;;;;;0.00;0.00;;;;;;;15.62;nan;99701.53;6222154;22;21050;-74
2023/07/31 00:13:21;;;;;;;0.00;0.00;;;;;;;15.64;nan;99710.31;6198868;22;20438;-75
2023/07/31 00:15:47;;;;;;;0.00;0.00;;;;;;;15.67;nan;99709.66;6222251;22;20004;-76
2023/07/31 00:18:13;;;;;;;0.00;0.00;;;;;;;15.68;nan;99695.56;6275985;22;20011;-76
2023/07/31 00:20:38;;;;;;;0.00;0.00;;;;;;;15.68;nan;99694.72;6246814;22;20020;-75
2023/07/31 00:23:03;;;;;;;0.00;0.00;;;;;;;15.75;nan;99691.53;6249305;22;20087;-74
2023/07/31 00:25:29;;;;;;;0.00;0.00;;;;;;;15.75;nan;99694.28;6223585;22;20337;-76
2023/07/31 00:27:54;;;;;;;0.00;0.00;;;;;;;15.79;nan;99681.53;6198925;22;20364;-75
2023/07/31 00:30:20;;;;;;;0.00;0.00;;;;;;;15.82;nan;99681.69;6224529;22;20007;-75
2023/07/31 00:32:45;;;;;;;0.00;0.00;;;;;;;15.81;nan;99677.31;6224929;22;20012;-76
2023/07/31 00:35:10;;;;;;;0.00;0.00;;;;;;;15.84;nan;99675.84;6223209;22;20011;-76
2023/07/31 00:37:36;;;;;;;0.00;0.00;;;;;;;15.88;nan;99665.81;6223547;22;20086;-76
2023/07/31 00:40:03;;;;;;;0.00;0.00;;;;;;;15.91;nan;99658.84;6221978;22;20007;-76
2023/07/31 00:42:29;;;;;;;0.00;0.00;;;;;;;15.96;nan;99656.75;6198570;22;20011;-75
2023/07/31 00:44:54;;;;;;;0.00;0.00;;;;;;;15.90;nan;99647.00;6223400;22;20688;-76
2023/07/31 00:47:19;;;;;;;0.00;0.00;;;;;;;16.02;nan;99660.19;6223726;22;20014;-76
2023/07/31 00:49:56;;;;;;;0.00;0.00;;;;;;;15.95;nan;99637.78;6198902;22;20008;-76
2023/07/31 00:52:21;;;;;;;0.00;0.00;;;;;;;16.05;nan;99654.81;6225069;22;20022;-75
2023/07/31 00:54:49;;;;;;;0.00;0.00;;;;;;;15.99;nan;99622.19;6248386;22;20011;-76
2023/07/31 00:57:14;;;;;;;0.00;0.00;;;;;;;15.93;nan;99620.72;6222947;22;20011;-76
2023/07/31 00:59:40;;;;;;;0.00;0.00;;;;;;;16.09;nan;99638.47;6247789;22;20106;-76
2023/07/31 01:02:08;;;;;;;0.00;0.00;;;;;;;16.05;nan;99668.63;6224223;22;20071;-77
2023/07/31 01:04:34;;;;;;;0.00;0.00;;;;;;;16.10;nan;99642.81;6248112;22;20008;-76
2023/07/31 01:07:03;;;;;;;0.00;0.00;;;;;;;16.06;nan;99636.31;6249292;22;20011;-76
2023/07/31 01:09:40;;;;;;;0.00;0.00;;;;;;;16.06;nan;99617.00;6275462;22;20499;-75
2023/07/31 01:12:07;;;;;;;0.00;0.00;;;;;;;16.05;nan;99618.97;6248641;22;20451;-76
2023/07/31 01:14:37;;;;;;;0.00;0.00;;;;;;;16.10;nan;99622.72;6246813;22;20081;-75
2023/07/31 01:17:03;;;;;;;0.00;0.00;;;;;;;16.07;nan;99613.13;6246218;22;20004;-75
2023/07/31 01:19:29;;;;;;;0.00;0.00;;;;;;;16.07;nan;99618.66;6222406;22;20023;-74
2023/07/31 01:22:27;;;;;;;0.00;0.00;;;;;;;16.08;nan;99614.78;6248557;22;20499;-74
2023/07/31 01:25:29;;;;;;;0.00;0.00;;;;;;;16.05;nan;99598.88;6247351;22;20061;-75
2023/07/31 01:28:09;;;;;;;0.00;0.00;;;;;;;16.03;nan;99587.34;6248198;22;20115;-77
2023/07/31 01:30:40;;;;;;;0.00;0.00;;;;;;;16.05;nan;99594.16;6247831;22;20019;-75
2023/07/31 01:33:07;;;;;;;0.00;0.00;;;;;;;16.02;nan;99602.28;6275268;22;20326;-76
2023/07/31 01:35:37;;;;;;;0.00;0.00;;;;;;;15.95;nan;99577.94;6246146;22;20011;-75
2023/07/31 01:38:02;;;;;;;0.00;0.00;;;;;;;15.98;nan;99593.81;6247132;22;19999;-74
2023/07/31 01:40:29;;;;;;;0.00;0.00;;;;;;;15.98;nan;99590.25;6272726;22;19995;-75
2023/07/31 01:42:54;;;;;;;0.00;0.00;;;;;;;15.97;nan;99583.13;6196327;22;20083;-73
2023/07/31 01:45:20;;;;;;;0.00;0.00;;;;;;;15.98;nan;99582.00;6219247;22;20046;-75
2023/07/31 01:47:48;;;;;;;0.00;0.00;;;;;;;15.99;nan;99587.19;6219632;22;20379;-75
2023/07/31 01:50:13;;;;;;;0.00;0.00;;;;;;;16.02;nan;99596.75;6247175;22;20090;-74
2023/07/31 01:52:39;;;;;;;0.00;0.00;;;;;;;16.03;nan;99596.44;6247199;22;20378;-74
2023/07/31 01:55:04;;;;;;;0.00;0.00;;;;;;;15.88;nan;99561.84;6222741;22;20094;-75
2023/07/31 01:57:30;;;;;;;0.00;0.00;;;;;;;15.93;nan;99565.59;6222142;22;20038;-75
2023/07/31 01:59:55;;;;;;;0.00;0.00;;;;;;;15.90;nan;99574.50;6247076;22;19999;-76
2023/07/31 02:02:22;;;;;;;0.00;0.00;;;;;;;15.91;nan;99573.38;6221201;22;20004;-76
2023/07/31 02:04:48;;;;;;;0.00;0.00;;;;;;;15.95;nan;99577.13;6247375;22;20322;-75
2023/07/31 02:07:16;;;;;;;0.00;0.00;;;;;;;15.89;nan;99559.94;6245018;22;20008;-75
2023/07/31 02:09:41;;;;;;;0.00;0.00;;;;;;;15.93;nan;99573.88;6273588;22;20000;-75
2023/07/31 02:12:10;;;;;;;0.00;0.00;;;;;;;15.91;nan;99554.09;6220072;22;20088;-75
2023/07/31 02:14:35;;;;;;;0.00;0.00;;;;;;;15.91;nan;99551.34;6221704;22;20004;-75
2023/07/31 02:17:01;;;;;;;0.00;0.00;;;;;;;15.82;nan;99545.81;6220267;22;20061;-76
2023/07/31 02:19:26;;;;;;;0.00;0.00;;;;;;;15.91;nan;99538.34;6274233;22;20097;-75
2023/07/31 02:21:52;;;;;;;0.00;0.00;;;;;;;15.91;nan;99537.53;6197259;22;20003;-76
2023/07/31 02:24:17;;;;;;;0.00;0.00;;;;;;;16.03;nan;99545.97;6246574;22;20010;-75
2023/07/31 02:26:43;;;;;;;0.00;0.00;;;;;;;15.99;nan;99545.00;6274608;22;20011;-75
2023/07/31 02:29:08;;;;;;;0.00;0.00;;;;;;;15.96;nan;99523.59;6248392;22;20015;-75
2023/07/31 02:31:34;;;;;;;0.00;0.00;;;;;;;15.98;nan;99526.84;6220482;22;20011;-76
2023/07/31 02:34:02;;;;;;;0.00;0.00;;;;;;;16.11;nan;99547.94;6275280;22;20007;-76
2023/07/31 02:36:27;;;;;;;0.00;0.00;;;;;;;16.06;nan;99528.78;6246648;22;20004;-76
2023/07/31 02:38:52;;;;;;;0.00;0.00;;;;;;;16.10;nan;99529.75;6247666;22;20015;-76
2023/07/31 02:41:18;;;;;;;0.00;0.00;;;;;;;16.09;nan;99522.63;6195985;22;20014;-76
2023/07/31 02:43:43;;;;;;;0.00;0.00;;;;;;;16.01;nan;99515.16;6246627;22;20426;-74
2023/07/31 02:46:09;;;;;;;0.00;0.00;;;;;;;16.03;nan;99518.41;6222522;22;19999;-76
2023/07/31 02:48:42;;;;;;;0.00;0.00;;;;;;;16.02;nan;99503.00;6244333;22;20049;-77
2023/07/31 02:51:07;;;;;;;0.00;0.00;;;;;;;16.03;nan;99529.44;6246946;22;20058;-76
2023/07/31 02:53:38;;;;;;;0.00;0.00;;;;;;;15.99;nan;99506.38;6221527;22;20015;-75
2023/07/31 02:56:03;;;;;;;0.00;0.00;;;;;;;15.95;nan;99488.91;6221857;22;20142;-76
2023/07/31 02:58:29;;;;;;;0.00;0.00;;;;;;;16.08;nan;99503.63;6220992;22;20050;-76
2023/07/31 03:00:54;;;;;;;0.00;0.00;;;;;;;16.05;nan;99494.09;6247246;22;20012;-76
2023/07/31 03:03:20;;;;;;;0.00;0.00;;;;;;;16.03;nan;99488.91;6273035;22;20062;-75
2023/07/31 03:05:48;;;;;;;0.00;0.00;;;;;;;15.87;nan;99466.53;6221208;22;20079;-77
2023/07/31 03:08:13;;;;;;;0.00;0.00;;;;;;;15.94;nan;99463.25;6246014;22;20018;-77
2023/07/31 03:10:42;;;;;;;0.00;0.00;;;;;;;16.05;nan;99510.63;6243970;22;20008;-76
2023/07/31 03:13:07;;;;;;;0.00;0.00;;;;;;;16.08;nan;99504.47;6246091;22;20004;-77
2023/07/31 03:15:35;;;;;;;0.00;0.00;;;;;;;15.96;nan;99490.50;6221366;22;20112;-75
2023/07/31 03:18:01;;;;;;;0.00;0.00;;;;;;;16.01;nan;99498.63;6223066;22;20017;-76
2023/07/31 03:20:26;;;;;;;0.00;0.00;;;;;;;16.08;nan;99493.44;6223073;22;20024;-75
2023/07/31 03:22:51;;;;;;;0.00;0.00;;;;;;;15.98;nan;99471.69;6248555;22;20435;-75
2023/07/31 03:25:17;;;;;;;0.00;0.00;;;;;;;16.05;nan;99483.06;6248681;22;19999;-76
2023/07/31 03:27:42;;;;;;;0.00;0.00;;;;;;;16.05;nan;99478.34;6223384;22;20079;-75
2023/07/31 03:30:12;;;;;;;0.00;0.00;;;;;;;16.07;nan;99482.72;6223961;22;20004;-75
2023/07/31 03:32:38;;;;;;;0.00;0.00;;;;;;;16.04;nan;99492.44;6223047;22;20334;-76
2023/07/31 03:35:05;;;;;;;0.00;0.00;;;;;;;16.02;nan;99467.16;6248511;22;20087;-75
2023/07/31 03:37:30;;;;;;;0.00;0.00;;;;;;;16.10;nan;99485.63;6223214;22;20086;-76
2023/07/31 03:39:56;;;;;;;0.00;0.00;;;;;;;16.17;nan;99485.16;6247924;22;20011;-75
2023/07/31 03:42:26;;;;;;;0.00;0.00;;;;;;;16.05;nan;99478.34;6248926;22;20012;-76
2023/07/31 03:44:52;;;;;;;0.00;0.00;;;;;;;16.12;nan;99477.84;6248530;22;20082;-75
2023/07/31 03:47:17;;;;;;;0.00;0.00;;;;;;;16.10;nan;99476.56;6197801;22;20034;-75
2023/07/31 03:49:42;;;;;;;0.00;0.00;;;;;;;16.06;nan;99468.09;6245062;22;20690;-75
2023/07/31 03:52:08;;;;;;;0.00;0.00;;;;;;;16.08;nan;99465.84;6244722;22;20014;-76
2023/07/31 03:54:33;;;;;;;0.00;0.00;;;;;;;16.03;nan;99463.25;6222753;22;20095;-76
2023/07/31 03:56:59;;;;;;;0.00;0.00;;;;;;;15.98;nan;99455.97;6221633;22;20497;-76
2023/07/31 03:59:24;;;;;;;0.00;0.00;;;;;;;15.98;nan;99455.97;6247459;22;20031;-76
2023/07/31 04:01:50;;;;;;;0.00;0.00;;;;;;;16.08;nan;99465.84;6247956;22;20090;-76
2023/07/31 04:04:15;;;;;;;0.00;0.00;;;;;;;16.06;nan;99465.34;6247650;22;20003;-77
2023/07/31 04:06:40;;;;;;;0.00;0.00;;;;;;;16.04;nan;99471.19;6246370;22;20082;-76
2023/07/31 04:09:06;;;;;;;0.00;0.00;;;;;;;16.05;nan;99461.00;6223137;22;20015;-76
2023/07/31 04:11:32;;;;;;;0.00;0.00;;;;;;;16.01;nan;99460.81;6246736;22;20007;-77
2023/07/31 04:13:57;;;;;;;0.00;0.00;;;;;;;16.07;nan;99468.94;6248253;22;20011;-76
2023/07/31 04:16:25;;;;;;;0.00;0.00;;;;;;;16.01;nan;99454.50;6221705;22;20014;-77
2023/07/31 04:18:51;;;;;;;0.00;0.00;;;;;;;16.11;nan;99481.75;6248610;22;20034;-76
2023/07/31 04:21:18;;;;;;;0.00;0.00;;;;;;;16.03;nan;99443.94;6221452;22;20012;-76
2023/07/31 04:23:58;;;;;;;0.00;0.00;;;;;;;16.03;nan;99449.47;6247021;22;20492;-76
2023/07/31 04:26:26;;;;;;;0.00;0.00;;;;;;;16.05;nan;99449.97;6246775;22;20007;-76
2023/07/31 04:28:51;;;;;;;0.00;0.00;;;;;;;16.05;nan;99461.00;6221771;22;20335;-75
2023/07/31 04:31:19;;;;;;;0.08;0.08;;;;;;;16.07;nan;99469.75;6245990;22;20012;-76
2023/07/31 04:33:45;;;;;;;0.00;0.00;;;;;;;16.08;nan;99474.13;6248267;22;20094;-76
2023/07/31 04:36:10;;;;;;;0.00;0.00;;;;;;;16.15;nan;99474.44;6197315;22;20035;-77
2023/07/31 04:38:48;;;;;;;;;;;;;;;;;;;;;
2023/07/31 04:41:18;;;;;;;0.00;0.00;;;;;;;15.99;nan;99443.81;6249806;22;20086;-76
2023/07/31 04:43:53;;;;;;;0.00;0.00;;;;;;;16.15;nan;99482.72;6248463;22;20061;-76
2023/07/31 04:46:18;;;;;;;0.00;0.00;;;;;;;16.09;nan;99450.09;6248135;22;20004;-76
2023/07/31 04:48:44;;;;;;;0.00;0.00;;;;;;;16.15;nan;99459.81;6249100;22;20026;-75
2023/07/31 04:51:09;;;;;;;0.00;0.00;;;;;;;16.16;nan;99459.50;6247993;22;19999;-74
2023/07/31 04:53:35;;;;;;;0.00;0.00;;;;;;;16.10;nan;99441.50;6248328;22;20008;-75
2023/07/31 04:56:01;;;;;;;0.00;0.00;;;;;;;16.06;nan;99440.53;6247907;22;20004;-75
2023/07/31 04:58:26;;;;;;;0.00;0.00;;;;;;;16.20;nan;99471.50;6248708;22;20014;-76
2023/07/31 05:00:52;;;;;;;0.00;0.00;;;;;;;16.20;nan;99468.75;6248109;22;20000;-76
2023/07/31 05:03:20;;;;;;;0.00;0.00;;;;;;;16.23;nan;99468.09;6247734;22;19999;-76
2023/07/31 05:05:48;;;;;;;0.00;0.00;;;;;;;16.26;nan;99472.16;6247616;22;20007;-75
2023/07/31 05:08:17;;;;;;;0.00;0.00;;;;;;;16.14;nan;99453.50;6222018;22;20057;-75
2023/07/31 05:10:43;;;;;;;0.00;0.00;;;;;;;16.16;nan;99451.22;6273027;22;19996;-76
2023/07/31 05:13:08;;;;;;;0.00;0.00;;;;;;;16.25;nan;99465.00;6248443;22;20035;-76
2023/07/31 05:15:36;;;;;;;0.00;0.00;;;;;;;16.22;nan;99441.66;6221464;22;20594;-76
2023/07/31 05:18:01;;;;;;;0.00;0.00;;;;;;;16.30;nan;99439.22;6275155;22;20006;-76
2023/07/31 05:20:27;;;;;;;0.00;0.00;;;;;;;16.29;nan;99438.38;6220959;22;20020;-76
2023/07/31 05:22:53;;;;;;;0.00;0.00;;;;;;;16.39;nan;99459.31;6247995;22;20082;-75
2023/07/31 05:25:18;;;;;;;0.00;0.00;;;;;;;16.29;nan;99423.78;6247220;22;20089;-75
2023/07/31 05:27:44;;;;;;;0.00;0.00;;;;;;;16.35;nan;99444.53;6221966;22;19992;-75
2023/07/31 05:30:11;;;;;;;0.00;0.00;;;;;;;16.42;nan;99431.06;6244959;22;19999;-75
2023/07/31 05:32:37;;;;;;;0.00;0.00;;;;;;;16.42;nan;99420.00;6246990;22;20054;-74
2023/07/31 05:35:02;;;;;;;0.00;0.00;;;;;;;16.49;nan;99434.09;6221153;22;20004;-75
2023/07/31 05:37:28;;;;;;;0.00;0.00;;;;;;;16.70;nan;99447.19;6272353;22;20027;-74
2023/07/31 05:39:53;;;;;;;0.00;0.00;;;;;;;16.72;nan;99436.63;6196395;22;20012;-75
2023/07/31 05:42:22;;;;;;;0.00;0.00;;;;;;;16.78;nan;99443.59;6272948;22;20026;-74
2023/07/31 05:44:47;;;;;;;0.00;0.00;;;;;;;16.81;nan;99431.88;6274051;22;20026;-75
2023/07/31 05:47:12;;;;;;;0.00;0.00;;;;;;;16.97;nan;99451.47;6247672;22;20000;-74
2023/07/31 05:49:38;;;;;;;0.00;0.00;;;;;;;16.95;nan;99436.38;6273424;22;20004;-74
2023/07/31 05:52:28;;;;;;;0.00;0.00;;;;;;;16.95;nan;99441.91;6247518;22;20008;-75
2023/07/31 05:54:56;;;;;;;0.00;0.00;;;;;;;16.86;nan;99428.91;6246889;22;20004;-75
2023/07/31 05:57:30;;;;;;;0.00;0.00;;;;;;;16.82;nan;99436.25;6247298;22;20074;-75
2023/07/31 05:59:55;;;;;;;;;;;;;;;16.87;nan;99441.63;6224425;22;20457;-75
2023/07/31 06:02:23;;;;;;;0.00;0.00;;;;;;;16.78;nan;99432.53;6246084;22;19907;-75
2023/07/31 06:04:49;;;;;;;0.00;0.00;;;;;;;16.70;nan;99425.09;6247591;22;20049;-75
2023/07/31 06:07:14;;;;;;;0.00;0.00;;;;;;;16.64;nan;99427.22;6273618;22;20003;-75
2023/07/31 06:09:53;;;;;;;;;;;;;;;;;;;;;
2023/07/31 06:12:27;;;;;;;0.00;0.00;;;;;;;16.65;nan;99422.53;6274199;22;20074;-74
2023/07/31 06:14:55;;;;;;;0.00;0.00;;;;;;;16.54;nan;99406.34;6249628;22;20057;-75
2023/07/31 06:17:40;;;;;;;;;;;;;;;;;;;;;
2023/07/31 06:20:14;;;;;;;0.00;0.00;;;;;;;16.63;nan;99397.19;6273374;22;20541;-76
2023/07/31 06:23:09;;;;;;;;;;;;;;;;;;;;;
2023/07/31 06:25:53;;;;;;;0.00;0.00;;;;;;;16.87;nan;99411.25;6274198;22;20390;-75
2023/07/31 06:28:27;;;;;;;0.00;0.00;;;;;;;16.89;nan;99414.50;6246445;22;20035;-74
2023/07/31 06:31:05;;;;;;;0.00;0.00;;;;;;;16.91;nan;99414.16;6275075;22;20083;-75
2023/07/31 06:33:41;;;;;;;0.00;0.00;;;;;;;16.85;nan;99410.75;6273183;22;20003;-76
2023/07/31 06:36:09;;;;;;;0.00;0.00;;;;;;;16.96;nan;99408.44;6247231;22;20091;-75
2023/07/31 06:38:37;;;;;;;0.00;0.00;;;;;;;17.17;nan;99433.34;6222112;22;20731;-74
2023/07/31 06:41:02;;;;;;;0.00;0.00;;;;;;;17.20;nan;99420.78;6245120;22;20082;-75
2023/07/31 06:43:28;;;;;;;0.00;0.00;;;;;;;17.53;nan;99434.69;6220650;22;20050;-75
2023/07/31 06:45:53;;;;;;;0.00;0.00;;;;;;;17.86;nan;99425.66;6272823;22;20000;-76
2023/07/31 06:48:20;;;;;;;0.00;0.00;;;;;;;18.23;nan;99405.63;6197214;22;20023;-75
2023/07/31 06:50:45;;;;;;;0.00;0.00;;;;;;;18.57;nan;99412.72;6245938;22;20004;-76
2023/07/31 06:53:11;;;;;;;0.00;0.00;;;;;;;18.69;nan;99419.41;6246490;22;20090;-75
2023/07/31 06:55:37;;;;;;;0.00;0.00;;;;;;;18.69;nan;99416.66;6221017;22;20034;-74
2023/07/31 06:58:02;;;;;;;0.00;0.00;;;;;;;18.49;nan;99413.66;6220754;22;20015;-74
2023/07/31 07:00:28;;;;;;;0.00;0.00;;;;;;;18.40;nan;99415.69;6246203;22;20015;-74
2023/07/31 07:02:54;;;;;;;0.00;0.00;;;;;;;18.27;nan;99412.91;6244485;22;20031;-73
2023/07/31 07:05:19;;;;;;;0.00;0.00;;;;;;;18.10;nan;99424.16;6222143;22;20003;-74
2023/07/31 07:07:45;;;;;;;0.00;0.00;;;;;;;17.90;nan;99398.97;6245716;22;19999;-74
2023/07/31 07:10:10;;;;;;;0.00;0.00;;;;;;;17.99;nan;99395.31;6195968;22;20639;-74
2023/07/31 07:12:36;;;;;;;0.00;0.00;;;;;;;18.23;nan;99403.66;6244522;22;20004;-73
2023/07/31 07:15:02;;;;;;;0.00;0.00;;;;;;;18.50;nan;99401.44;6246820;22;20138;-75
2023/07/31 07:17:32;;;;;;;0.00;0.00;;;;;;;18.88;nan;99410.56;6246067;22;20003;-73
2023/07/31 07:19:59;;;;;;;0.00;0.00;;;;;;;19.13;nan;99391.97;6246450;22;20023;-73
2023/07/31 07:22:25;;;;;;;0.00;0.00;;;;;;;19.24;nan;99389.53;6219446;22;20323;-74
2023/07/31 07:24:51;;;;;;;0.00;0.00;;;;;;;19.49;nan;99398.56;6220708;22;20053;-73
2023/07/31 07:27:16;;;;;;;0.00;0.00;;;;;;;19.66;nan;99378.88;6220614;22;20353;-73
2023/07/31 07:29:42;;;;;;;0.00;0.00;;;;;;;19.81;nan;99393.97;6195626;22;20035;-73
2023/07/31 07:32:07;;;;;;;0.00;0.00;;;;;;;19.84;nan;99411.88;6246537;22;20050;-74
2023/07/31 07:34:33;;;;;;;0.00;0.00;;;;;;;19.67;nan;99391.59;6244305;22;20012;-73
2023/07/31 07:36:59;;;;;;;0.00;0.00;;;;;;;19.62;nan;99389.06;6238794;22;20423;-73
2023/07/31 07:39:24;;;;;;;0.00;0.00;;;;;;;19.68;nan;99384.91;6219831;22;20094;-74
2023/07/31 07:41:50;;;;;;;0.00;0.00;;;;;;;19.68;nan;99384.91;6196872;22;20018;-73
2023/07/31 07:44:15;;;;;;;0.00;0.00;;;;;;;19.71;nan;99373.09;6219797;22;20019;-74
2023/07/31 07:46:41;;;;;;;0.00;0.00;;;;;;;19.79;nan;99378.88;6273375;22;20037;-73
2023/07/31 07:49:06;;;;;;;0.00;0.00;;;;;;;19.85;nan;99388.53;6245487;22;20043;-74
2023/07/31 07:51:32;;;;;;;0.00;0.00;;;;;;;19.95;nan;99368.63;6194915;22;20012;-74
2023/07/31 07:53:58;;;;;;;0.00;0.00;;;;;;;20.11;nan;99373.41;6246384;22;20137;-74
2023/07/31 07:56:25;;;;;;;0.00;0.00;;;;;;;20.13;nan;99365.50;6218596;22;20019;-75
2023/07/31 07:58:51;;;;;;;0.00;0.00;;;;;;;20.36;nan;99374.84;6221003;22;20007;-74
2023/07/31 08:01:17;;;;;;;0.00;0.00;;;;;;;20.66;nan;99360.53;6247011;22;20083;-74
2023/07/31 08:03:42;;;;;;;0.00;0.00;;;;;;;20.99;nan;99362.06;6246501;22;20000;-73
2023/07/31 08:06:09;;;;;;;0.00;0.00;;;;;;;20.79;nan;99355.66;6240973;22;20357;-74
2023/07/31 08:08:37;;;;;;;0.00;0.00;;;;;;;21.08;nan;99373.81;6221664;22;20015;-73
2023/07/31 08:11:03;;;;;;;0.00;0.00;;;;;;;20.85;nan;99362.56;6245583;22;20007;-72
2023/07/31 08:13:28;;;;;;;0.00;0.00;;;;;;;20.69;nan;99362.59;6273097;22;20008;-73
2023/07/31 08:15:54;;;;;;;0.00;0.00;;;;;;;20.58;nan;99358.72;6221771;22;20326;-72
2023/07/31 08:18:20;;;;;;;0.00;0.00;;;;;;;20.69;nan;99353.44;6222303;22;20018;-72
2023/07/31 08:20:45;;;;;;;0.00;0.00;;;;;;;20.99;nan;99366.84;6246579;22;20130;-73
2023/07/31 08:23:12;;;;;;;0.00;0.00;;;;;;;21.33;nan;99356.84;6222312;22;20339;-74
2023/07/31 08:25:38;;;;;;;0.00;0.00;;;;;;;21.39;nan;99363.75;6247717;22;20011;-72
2023/07/31 08:28:05;;;;;;;0.00;0.00;;;;;;;21.59;nan;99363.78;6222352;22;20335;-73
2023/07/31 08:30:33;;;;;;;0.00;0.00;;;;;;;21.72;nan;99387.50;6247470;22;20034;-73
2023/07/31 08:33:00;;;;;;;0.00;0.00;;;;;;;21.52;nan;99366.41;6222123;22;20053;-73
2023/07/31 08:35:28;;;;;;;0.00;0.00;;;;;;;21.24;nan;99367.38;6247060;22;20004;-74
2023/07/31 08:38:01;;;;;;;0.00;0.00;;;;;;;20.90;nan;99336.47;6248279;22;20027;-75
2023/07/31 08:40:28;;;;;;;0.00;0.00;;;;;;;20.63;nan;99361.19;6246568;22;19999;-74
2023/07/31 08:43:01;;;;;;;0.00;0.00;;;;;;;20.24;nan;99347.16;6222686;22;20326;-75
2023/07/31 08:45:31;;;;;;;0.00;0.00;;;;;;;20.19;nan;99358.53;6246826;22;20087;-74
2023/07/31 08:48:04;;;;;;;0.00;0.00;;;;;;;19.93;nan;99357.06;6273043;22;20003;-75
2023/07/31 08:50:29;;;;;;;0.00;0.00;;;;;;;19.90;nan;99356.97;6222874;22;20008;-75
2023/07/31 08:52:57;;;;;;;0.00;0.00;;;;;;;20.05;nan;99390.28;6273089;22;20078;-74
2023/07/31 08:55:24;;;;;;;0.00;0.00;;;;;;;20.12;nan;99386.09;6247828;22;20081;-74
2023/07/31 08:57:51;;;;;;;0.00;0.00;;;;;;;20.18;nan;99390.22;6274454;22;19999;-74
2023/07/31 09:00:20;;;;;;;0.00;0.00;;;;;;;20.26;nan;99386.47;6247985;22;20445;-73
2023/07/31 09:02:50;;;;;;;0.00;0.00;;;;;;;20.58;nan;99358.72;6245855;22;20000;-73
2023/07/31 09:05:18;;;;;;;0.00;0.00;;;;;;;20.94;nan;99354.03;6275062;22;20078;-75
2023/07/31 09:07:47;;;;;;;0.00;0.00;;;;;;;21.35;nan;99365.66;6273273;22;20017;-73
2023/07/31 09:10:13;;;;;;;0.00;0.00;;;;;;;21.64;nan;99391.31;6246749;22;20616;-74
2023/07/31 09:12:39;;;;;;;0.00;0.00;;;;;;;21.62;nan;99388.09;6245868;22;20007;-74
2023/07/31 09:15:05;;;;;;;0.00;0.00;;;;;;;21.76;nan;99366.13;6245958;22;20296;-73
2023/07/31 09:17:38;;;;;;;0.00;0.00;;;;;;;22.26;nan;99341.16;6221617;22;20049;-74
2023/07/31 09:20:19;;;;;;;0.00;0.00;;;;;;;22.69;nan;99360.59;6244832;22;20078;-74
2023/07/31 09:22:45;;;;;;;0.00;0.00;;;;;;;22.25;nan;99363.81;6247349;22;20100;-72
2023/07/31 09:25:21;;;;;;;0.00;0.00;;;;;;;21.89;nan;99347.28;6247407;22;20000;-76
2023/07/31 09:27:59;;;;;;;0.00;0.00;;;;;;;21.72;nan;99336.63;6246156;22;20133;-72
2023/07/31 09:30:24;;;;;;;0.00;0.00;;;;;;;21.79;nan;99343.13;6247158;22;20351;-74
2023/07/31 09:32:51;;;;;;;0.00;0.00;;;;;;;21.69;nan;99343.72;6247490;22;20010;-73
2023/07/31 09:35:28;;;;;;;0.00;0.00;;;;;;;21.58;nan;99345.47;6270611;22;20008;-72
2023/07/31 09:37:57;;;;;;;0.00;0.00;;;;;;;21.59;nan;99347.88;6240476;22;20014;-75
2023/07/31 09:40:30;;;;;;;0.00;0.00;;;;;;;21.64;nan;99349.59;6245939;22;20007;-74
2023/07/31 09:42:58;;;;;;;0.00;0.00;;;;;;;21.37;nan;99354.97;6246898;22;20438;-74
2023/07/31 09:45:24;;;;;;;0.00;0.00;;;;;;;21.18;nan;99341.84;6221439;22;20110;-73
2023/07/31 09:47:49;;;;;;;0.00;0.00;;;;;;;21.09;nan;99349.59;6221080;22;20003;-72
2023/07/31 09:50:18;;;;;;;0.00;0.00;;;;;;;20.87;nan;99370.53;6246364;22;20003;-74
2023/07/31 09:52:43;;;;;;;0.00;0.00;;;;;;;20.56;nan;99377.72;6245996;22;20446;-72
2023/07/31 09:55:10;;;;;;;0.00;0.00;;;;;;;20.28;nan;99378.59;6246496;22;20003;-72
2023/07/31 09:57:42;;;;;;;0.00;0.00;;;;;;;20.00;nan;99376.66;6246589;22;20003;-73
2023/07/31 10:00:09;;;;;;;0.00;0.00;;;;;;;19.74;nan;99387.41;6273973;22;20008;-74
2023/07/31 10:02:37;;;;;;;0.00;0.00;;;;;;;19.30;nan;99391.72;6246702;22;20414;-73
2023/07/31 10:05:04;;;;;;;0.00;0.00;;;;;;;19.07;nan;99387.81;6221800;22;20670;-73
2023/07/31 10:07:31;;;;;;;0.00;0.00;;;;;;;19.11;nan;99355.47;6220978;22;20014;-73
2023/07/31 10:10:06;;;;;;;0.00;0.00;;;;;;;19.36;nan;99361.75;6272941;22;20000;-75
2023/07/31 10:12:32;;;;;;;0.00;0.00;;;;;;;19.45;nan;99320.03;6246242;22;20090;-74
2023/07/31 10:15:04;;;;;;;0.00;0.00;;;;;;;19.99;nan;99354.81;6249241;22;20000;-80
2023/07/31 10:17:31;;;;;;;0.00;0.00;;;;;;;20.27;nan;99332.56;6248922;22;20003;-79
2023/07/31 10:20:03;;;;;;;0.00;0.00;;;;;;;20.28;nan;99341.69;6243445;23;20164;-78
2023/07/31 10:22:30;;;;;;;0.00;0.00;;;;;;;20.01;nan;99378.28;6244759;23;20062;-77
2023/07/31 10:24:58;;;;;;;0.00;0.00;;;;;;;19.78;nan;99413.28;6244390;23;20030;-77
2023/07/31 10:27:23;;;;;;;0.00;0.00;;;;;;;19.35;nan;99388.69;6244191;23;20057;-77
2023/07/31 10:29:53;;;;;;;0.00;0.00;;;;;;;19.21;nan;99391.03;6216814;23;20103;-76
2023/07/31 10:32:22;;;;;;;0.00;0.00;;;;;;;19.24;nan;99406.16;6243410;23;20007;-75
2023/07/31 10:34:49;;;;;;;0.00;0.00;;;;;;;19.50;nan;99406.53;6242856;23;20008;-79
2023/07/31 10:37:30;;;;;;;0.00;0.00;;;;;;;19.91;nan;99420.41;6244874;22;20004;-77
2023/07/31 10:40:03;;;;;;;0.00;0.00;;;;;;;20.30;nan;99409.59;6243987;22;20304;-76
2023/07/31 10:42:38;;;;;;;0.00;0.00;;;;;;;20.62;nan;99401.28;6241596;23;20024;-75
2023/07/31 10:45:10;;;;;;;0.00;0.00;;;;;;;20.91;nan;99415.91;6243158;22;20019;-74
2023/07/31 10:48:00;;;;;;;0.00;0.00;;;;;;;20.88;nan;99403.53;6240779;23;20004;-74
2023/07/31 10:50:26;;;;;;;0.00;0.00;;;;;;;20.88;nan;99394.38;6227681;22;20373;-74
2023/07/31 10:52:53;;;;;;;0.00;0.00;;;;;;;20.74;nan;99387.31;6242681;22;20079;-74
2023/07/31 10:55:26;;;;;;;0.00;0.00;;;;;;;20.53;nan;99375.63;6238617;23;19996;-75
2023/07/31 10:57:53;;;;;;;0.00;0.00;;;;;;;20.17;nan;99394.16;6237146;23;20008;-75
2023/07/31 11:00:29;;;;;;;0.00;0.00;;;;;;;19.80;nan;99397.94;6239039;23;20015;-75
2023/07/31 11:03:01;;;;;;;0.00;0.00;;;;;;;19.63;nan;99396.22;6239685;23;20075;-75
2023/07/31 11:05:48;;;;;;;0.00;0.00;;;;;;;19.62;nan;99397.38;6241143;23;20362;-75
2023/07/31 11:08:22;;;;;;;0.00;0.00;;;;;;;19.75;nan;99400.13;6239518;23;20015;-74
2023/07/31 11:10:50;;;;;;;0.00;0.00;;;;;;;19.82;nan;99411.44;6240909;23;20050;-75
2023/07/31 11:13:16;;;;;;;0.00;0.00;;;;;;;19.82;nan;99411.44;6241559;22;20322;-74
2023/07/31 11:15:42;;;;;;;0.00;0.00;;;;;;;19.82;nan;99411.44;6241097;23;20000;-75
2023/07/31 11:18:08;;;;;;;0.00;0.00;;;;;;;19.93;nan;99400.63;6240633;23;20491;-74
2023/07/31 11:20:35;;;;;;;0.00;0.00;;;;;;;19.98;nan;99390.09;6240645;22;20078;-74
2023/07/31 11:23:09;;;;;;;0.00;0.00;;;;;;;19.94;nan;99375.31;6240197;23;20591;-74
2023/07/31 11:25:35;;;;;;;0.00;0.00;;;;;;;19.89;nan;99370.03;6192094;23;20364;-74
2023/07/31 11:28:05;;;;;;;0.00;0.00;;;;;;;19.62;nan;99385.50;6241184;22;20012;-74
2023/07/31 11:30:30;;;;;;;0.00;0.00;;;;;;;19.43;nan;99384.16;6241157;23;19996;-74
2023/07/31 11:32:56;;;;;;;0.00;0.00;;;;;;;19.17;nan;99379.03;6214891;23;20008;-75
2023/07/31 11:35:22;;;;;;;0.00;0.00;;;;;;;19.04;nan;99377.44;6241579;23;20012;-75
2023/07/31 11:37:48;;;;;;;0.00;0.00;;;;;;;18.97;nan;99367.75;6240408;23;20088;-75
2023/07/31 11:40:14;;;;;;;0.00;0.00;;;;;;;18.96;nan;99371.66;6242309;23;20040;-76
2023/07/31 11:42:40;;;;;;;0.00;0.00;;;;;;;18.97;nan;99362.22;6243028;23;20083;-76
2023/07/31 11:45:09;;;;;;;0.00;0.00;;;;;;;18.84;nan;99366.13;6217623;23;20070;-76
2023/07/31 11:47:36;;;;;;;0.00;0.00;;;;;;;18.60;nan;99358.63;6218460;23;20415;-75
2023/07/31 11:50:04;;;;;;;0.00;0.00;;;;;;;18.37;nan;99347.19;6193232;23;20014;-75
2023/07/31 11:52:39;;;;;;;0.00;0.00;;;;;;;18.24;nan;99341.66;6216669;23;20131;-75
2023/07/31 11:55:09;;;;;;;0.00;0.00;;;;;;;18.20;nan;99342.69;6241909;23;20050;-75
2023/07/31 11:57:37;;;;;;;0.00;0.00;;;;;;;18.16;nan;99356.38;6243458;23;20061;-75
2023/07/31 12:00:03;;;;;;;0.00;0.00;;;;;;;18.19;nan;99350.16;6216301;23;20718;-74